HELX Airport Information

Runway Information
Runway 02 Length 9843 ft width 148 ft
Elevation 294 ft Threshold 0 ft Heading 23
Runway 20 Length 9843 ft Width 148 ft
Elevation 272 ft Threshold 0 ft Heading 203
Airport Frequencies
Type APP Name RADAR Frequency 124.3 MHZ
Type GND Name GND Frequency 121.9 MHZ
Type RDO Name RDO Frequency 585.9 MHZ
Type TWR Name TWR Frequency 119.9 MHZ
Airport Navaids
Type NDB Name Luxor Frequency 364 KHZ
Type VOR-DME Name Luxor Frequency 114400 KHZ
Airport Weather Information & NOTAM
ADDS - METARS form results

(1214 UTC 22 January 2022)
Data provider http://aviationweather.gov/metar/data/
 
Forecast for: HELX (LUXOR (CIV/MIL) , EG)
Text: TAF HELX 221100Z 2212/2318 32008KT 6000 NSC
Forecast period: 1200 UTC 22 January 2022 to 1800 UTC 23 January 2022
Forecast type: FROM: standard forecast or significant change
Winds: from the NW (320 degrees) at 9 MPH (8 knots; 4.1 m/s)
Visibility: 4 miles (6 km)
Ceiling: unknown
Clouds: missing
Weather: no significant weather forecast for this period
Text: TEMPO 2212/2214 4000 HZ
Forecast period: 1200 to 1400 UTC 22 January 2022
Forecast type: TEMPORARY: The following changes expected for less than half the time period
Visibility: 2.49 miles (4.01 km)
Ceiling: unknown
Clouds: missing
Weather: HZ  (haze)